createdAt,value
2022-11-05T00:05:54.881Z,7.70
2022-11-05T00:12:37.032Z,7.70
2022-11-05T00:18:38.917Z,7.70
2022-11-05T00:24:59.413Z,7.70
2022-11-05T00:31:05.693Z,7.70
2022-11-05T00:37:07.390Z,7.70
2022-11-05T00:43:27.657Z,7.80
2022-11-05T00:49:31.981Z,7.70
2022-11-05T00:55:33.634Z,7.70
2022-11-05T01:01:35.359Z,7.60
2022-11-05T01:07:37.099Z,7.60
2022-11-05T01:13:39.340Z,7.70
2022-11-05T01:19:40.946Z,7.70
2022-11-05T01:25:42.781Z,7.60
2022-11-05T01:31:44.406Z,7.60
2022-11-05T01:37:46.314Z,7.60
2022-11-05T01:43:49.746Z,7.50
2022-11-05T01:49:51.621Z,7.50
2022-11-05T01:56:14.237Z,7.40
2022-11-05T02:02:16.285Z,7.40
2022-11-05T02:08:22.517Z,7.40
2022-11-05T02:14:24.149Z,7.40
2022-11-05T02:20:32.694Z,7.40
2022-11-05T02:26:53.233Z,7.50
2022-11-05T02:33:01.673Z,7.40
2022-11-05T02:39:20.304Z,7.40
2022-11-05T02:45:31.047Z,7.30
2022-11-05T02:51:32.644Z,7.40
2022-11-05T02:57:35.632Z,7.40
2022-11-05T03:03:48.443Z,7.50
2022-11-05T03:09:57.831Z,7.30
2022-11-05T03:16:22.782Z,7.20
2022-11-05T03:22:27.123Z,7.30
2022-11-05T03:28:31.028Z,7.20
2022-11-05T03:34:36.664Z,7.30
2022-11-05T03:40:39.223Z,7.30
2022-11-05T03:46:47.967Z,7.30
2022-11-05T03:52:53.825Z,7.30
2022-11-05T03:58:58.926Z,7.20
2022-11-05T04:05:01.192Z,7.10
2022-11-05T04:11:21.561Z,7.10
2022-11-05T04:17:23.219Z,7.20
2022-11-05T04:23:43.350Z,7.10
2022-11-05T04:30:03.535Z,7.00
2022-11-05T04:36:05.251Z,7.00
2022-11-05T04:42:06.883Z,6.90
2022-11-05T04:48:08.796Z,6.90
2022-11-05T04:54:10.437Z,7.20
2022-11-05T05:00:12.211Z,6.80
2022-11-05T05:06:13.811Z,6.60
2022-11-05T05:12:15.420Z,6.40
2022-11-05T05:18:17.057Z,6.40
2022-11-05T05:24:19.494Z,6.30
2022-11-05T05:30:21.238Z,6.20
2022-11-05T05:36:23.282Z,6.20
2022-11-05T05:42:24.936Z,6.20
2022-11-05T05:48:26.582Z,6.20
2022-11-05T05:54:32.679Z,6.10
2022-11-05T06:00:35.891Z,6.10
2022-11-05T06:06:37.643Z,6.00
2022-11-05T06:12:39.236Z,6.00
2022-11-05T06:18:40.881Z,6.00
2022-11-05T06:24:42.469Z,6.10
2022-11-05T06:30:49.847Z,6.10
2022-11-05T06:36:51.638Z,6.20
2022-11-05T06:42:53.459Z,6.20
2022-11-05T06:48:55.037Z,6.60
2022-11-05T06:54:56.791Z,6.50
2022-11-05T07:01:02.920Z,6.40
2022-11-05T07:07:04.718Z,6.60
2022-11-05T07:13:08.386Z,6.80
2022-11-05T07:19:10.453Z,6.80
2022-11-05T07:25:12.047Z,6.90
2022-11-05T07:31:13.658Z,7.00
2022-11-05T07:37:16.740Z,6.90
2022-11-05T07:43:18.385Z,7.00
2022-11-05T07:49:20.046Z,7.00
2022-11-05T07:55:21.635Z,7.10
2022-11-05T08:01:23.360Z,6.90
2022-11-05T08:07:25.064Z,7.10
2022-11-05T08:13:26.693Z,7.00
2022-11-05T08:19:28.358Z,7.10
2022-11-05T08:25:30.071Z,7.20
2022-11-05T08:31:32.059Z,7.30
2022-11-05T08:37:33.726Z,7.30
2022-11-05T08:43:35.358Z,7.40
2022-11-05T08:49:36.962Z,7.40
2022-11-05T08:55:38.651Z,7.40
2022-11-05T09:01:40.848Z,7.50
2022-11-05T09:07:42.541Z,7.50
2022-11-05T09:13:44.579Z,7.60
2022-11-05T09:19:46.541Z,7.60
2022-11-05T09:25:48.199Z,7.70
2022-11-05T09:31:49.895Z,7.80
2022-11-05T09:37:53.661Z,7.70
2022-11-05T09:44:03.778Z,7.90
2022-11-05T09:50:13.163Z,8.00
2022-11-05T09:56:25.184Z,8.30
2022-11-05T10:02:34.480Z,8.70
2022-11-05T10:08:40.258Z,9.10
2022-11-05T10:14:44.598Z,9.30
2022-11-05T10:20:46.284Z,9.80
2022-11-05T10:26:49.429Z,10.00
2022-11-05T10:32:56.456Z,10.00
2022-11-05T10:39:18.493Z,9.80
2022-11-05T10:45:38.951Z,10.10
2022-11-05T10:51:40.576Z,10.30
2022-11-05T10:57:42.383Z,10.50
2022-11-05T11:03:43.969Z,10.80
2022-11-05T11:09:47.363Z,11.00
2022-11-05T11:15:51.143Z,11.00
2022-11-05T11:22:19.734Z,10.90
2022-11-05T11:28:21.337Z,10.90
2022-11-05T11:34:23.155Z,11.20
2022-11-05T11:40:30.419Z,11.40
2022-11-05T11:46:33.895Z,11.30
2022-11-05T11:52:36.524Z,11.40
2022-11-05T11:58:38.173Z,11.70
2022-11-05T12:05:06.251Z,11.80
2022-11-05T12:11:14.144Z,11.90
2022-11-05T12:17:15.723Z,11.80
2022-11-05T12:23:23.227Z,11.90
2022-11-05T12:29:35.367Z,11.80
2022-11-05T12:35:49.016Z,11.80
2022-11-05T12:42:01.062Z,11.70
2022-11-05T12:48:23.295Z,11.30
2022-11-05T12:54:34.559Z,11.20
2022-11-05T13:00:37.964Z,11.10
2022-11-05T13:06:40.912Z,11.00
2022-11-05T13:12:42.857Z,10.80
2022-11-05T13:18:47.493Z,10.90
2022-11-05T13:24:50.266Z,10.80
2022-11-05T13:30:53.701Z,10.70
2022-11-05T13:37:15.937Z,10.70
2022-11-05T13:43:24.717Z,10.70
2022-11-05T13:49:29.581Z,10.70
2022-11-05T13:55:31.377Z,10.80
2022-11-05T14:01:42.450Z,10.90
2022-11-05T14:07:45.924Z,10.80
2022-11-05T14:13:50.706Z,10.80
2022-11-05T14:19:52.303Z,10.80
2022-11-05T14:25:55.672Z,10.80
2022-11-05T14:32:08.894Z,10.70
2022-11-05T14:38:24.969Z,10.60
2022-11-05T14:44:27.346Z,10.50
2022-11-05T14:50:34.753Z,10.50
2022-11-05T14:56:43.976Z,10.50
2022-11-05T15:02:55.651Z,10.50
2022-11-05T15:09:03.789Z,10.40
2022-11-05T15:15:21.774Z,10.30
2022-11-05T15:21:24.336Z,10.30
2022-11-05T15:27:44.490Z,10.20
2022-11-05T15:33:47.714Z,10.10
2022-11-05T15:39:50.271Z,10.00
2022-11-05T15:45:58.954Z,9.90
2022-11-05T15:52:00.938Z,9.90
2022-11-05T15:58:06.812Z,9.80
2022-11-05T16:04:11.509Z,9.70
2022-11-05T16:10:17.913Z,9.60
2022-11-05T16:16:20.970Z,9.50
2022-11-05T16:22:22.925Z,9.50
2022-11-05T16:28:26.061Z,9.50
2022-11-05T16:34:32.073Z,9.40
2022-11-05T16:40:33.767Z,9.30
2022-11-05T16:46:38.087Z,9.40
2022-11-05T16:52:39.763Z,9.30
2022-11-05T16:58:42.932Z,9.30
2022-11-05T17:04:44.570Z,9.40
2022-11-05T17:10:46.234Z,9.40
2022-11-05T17:16:47.826Z,9.30
2022-11-05T17:22:49.459Z,9.30
2022-11-05T17:28:51.070Z,9.20
2022-11-05T17:34:54.589Z,9.30
2022-11-05T17:40:56.211Z,9.20
2022-11-05T17:46:57.813Z,9.10
2022-11-05T17:52:59.430Z,9.20
2022-11-05T17:59:01.254Z,9.20
2022-11-05T18:05:02.968Z,9.10
2022-11-05T18:11:04.741Z,9.10
2022-11-05T18:17:06.381Z,9.00
2022-11-05T18:23:07.989Z,9.10
2022-11-05T18:29:09.611Z,9.10
2022-11-05T18:35:11.615Z,9.00
2022-11-05T18:41:13.324Z,9.00
2022-11-05T18:47:15.010Z,8.90
2022-11-05T18:53:16.740Z,9.00
2022-11-05T19:05:40.830Z,9.00
2022-11-05T19:11:42.436Z,9.00
2022-11-05T19:17:44.041Z,9.00
2022-11-05T19:23:45.760Z,9.00
2022-11-05T19:29:47.521Z,9.00
2022-11-05T19:35:49.186Z,9.00
2022-11-05T19:41:50.980Z,9.00
2022-11-05T19:47:52.891Z,9.00
2022-11-05T19:53:55.320Z,9.00
2022-11-05T19:59:57.117Z,9.00
2022-11-05T20:06:06.454Z,9.00
2022-11-05T20:12:08.049Z,9.00
2022-11-05T20:18:10.040Z,9.00
2022-11-05T20:24:13.307Z,9.00
2022-11-05T20:30:16.881Z,9.00
2022-11-05T20:36:19.317Z,8.90
2022-11-05T20:42:21.036Z,9.00
2022-11-05T20:48:22.638Z,8.90
2022-11-05T20:54:24.425Z,8.90
2022-11-05T21:00:26.053Z,8.90
2022-11-05T21:06:27.730Z,8.90
2022-11-05T21:12:29.429Z,8.90
2022-11-05T21:18:32.968Z,8.80
2022-11-05T21:24:34.895Z,8.80
2022-11-05T21:30:37.075Z,8.70
2022-11-05T21:36:39.260Z,8.70
2022-11-05T21:42:40.839Z,8.80
2022-11-05T21:48:42.474Z,8.70
2022-11-05T21:55:02.928Z,8.80
2022-11-05T22:01:04.578Z,8.80
2022-11-05T22:07:07.660Z,8.90
2022-11-05T22:13:09.269Z,8.90
2022-11-05T22:19:10.922Z,8.90
2022-11-05T22:25:13.468Z,8.90
2022-11-05T22:31:16.190Z,8.90
2022-11-05T22:37:17.911Z,8.80
2022-11-05T22:43:19.533Z,8.80
2022-11-05T22:49:21.183Z,8.80
2022-11-05T22:55:23.205Z,8.80
2022-11-05T23:01:25.516Z,8.80
2022-11-05T23:07:45.913Z,8.90
2022-11-05T23:13:47.558Z,8.80
2022-11-05T23:20:07.959Z,8.70
2022-11-05T23:26:28.782Z,8.80
2022-11-05T23:32:31.276Z,8.80
2022-11-05T23:38:36.111Z,8.80
2022-11-05T23:44:58.420Z,8.80
2022-11-05T23:51:03.039Z,8.80
2022-11-05T23:57:04.694Z,8.90
